createdAt,value
2019-03-02T00:01:59.664Z,5.80
2019-03-02T00:04:29.059Z,5.80
2019-03-02T00:06:58.456Z,5.80
2019-03-02T00:09:27.762Z,5.80
2019-03-02T00:11:57.532Z,5.80
2019-03-02T00:14:26.816Z,5.80
2019-03-02T00:16:56.154Z,5.80
2019-03-02T00:19:25.505Z,5.80
2019-03-02T00:21:54.875Z,5.80
2019-03-02T00:24:24.210Z,5.80
2019-03-02T00:26:53.576Z,5.70
2019-03-02T00:29:22.933Z,5.70
2019-03-02T00:31:52.307Z,5.70
2019-03-02T00:34:21.683Z,5.80
2019-03-02T00:36:54.690Z,5.70
2019-03-02T00:39:21.999Z,5.70
2019-03-02T00:41:51.381Z,5.80
2019-03-02T00:44:20.696Z,5.80
2019-03-02T00:46:50.020Z,5.80
2019-03-02T00:49:22.493Z,5.80
2019-03-02T00:51:50.529Z,5.70
2019-03-02T00:54:19.868Z,5.70
2019-03-02T00:56:49.189Z,5.70
2019-03-02T00:59:18.611Z,5.70
2019-03-02T01:01:47.947Z,5.60
2019-03-02T01:04:17.342Z,5.70
2019-03-02T01:06:48.860Z,5.70
2019-03-02T01:09:17.564Z,5.70
2019-03-02T01:11:47.011Z,5.60
2019-03-02T01:14:16.324Z,5.60
2019-03-02T01:16:45.650Z,5.70
2019-03-02T01:19:17.659Z,5.60
2019-03-02T01:21:45.985Z,5.60
2019-03-02T01:24:15.318Z,5.60
2019-03-02T01:26:44.664Z,5.50
2019-03-02T01:29:15.545Z,5.50
2019-03-02T01:31:44.940Z,5.50
2019-03-02T01:34:14.331Z,5.60
2019-03-02T01:36:44.839Z,5.60
2019-03-02T01:39:14.316Z,5.50
2019-03-02T01:41:43.726Z,5.50
2019-03-02T01:44:16.255Z,5.60
2019-03-02T01:46:44.032Z,5.50
2019-03-02T01:49:13.360Z,5.50
2019-03-02T01:51:42.736Z,5.60
2019-03-02T01:54:12.062Z,5.60
2019-03-02T01:56:42.526Z,5.60
2019-03-02T01:59:12.005Z,5.60
2019-03-02T02:01:41.329Z,5.40
2019-03-02T02:04:10.696Z,5.40
2019-03-02T02:06:42.836Z,5.30
2019-03-02T02:09:11.034Z,5.30
2019-03-02T02:11:40.440Z,5.40
2019-03-02T02:14:09.814Z,5.40
2019-03-02T02:16:41.825Z,5.40
2019-03-02T02:19:10.210Z,5.30
2019-03-02T02:21:39.553Z,5.40
2019-03-02T02:24:08.909Z,5.30
2019-03-02T02:26:38.254Z,5.30
2019-03-02T02:29:08.190Z,5.30
2019-03-02T02:31:44.178Z,5.30
2019-03-02T02:34:09.515Z,5.20
2019-03-02T02:36:38.842Z,5.20
2019-03-02T02:39:08.421Z,5.20
2019-03-02T02:41:37.744Z,5.30
2019-03-02T02:44:07.084Z,5.30
2019-03-02T02:46:36.466Z,5.30
2019-03-02T02:49:10.131Z,5.30
2019-03-02T02:51:36.740Z,5.30
2019-03-02T02:54:06.105Z,5.40
2019-03-02T02:56:35.437Z,5.40
2019-03-02T02:59:04.792Z,5.30
2019-03-02T03:01:35.005Z,5.30
2019-03-02T03:04:04.413Z,5.40
2019-03-02T03:06:34.183Z,5.40
2019-03-02T03:09:09.551Z,5.40
2019-03-02T03:11:43.590Z,5.30
2019-03-02T03:14:07.229Z,5.30
2019-03-02T03:16:36.493Z,5.40
2019-03-02T03:19:05.956Z,5.40
2019-03-02T03:21:35.234Z,5.40
2019-03-02T03:24:05.337Z,5.40
2019-03-02T03:26:35.385Z,5.40
2019-03-02T03:29:09.750Z,5.40
2019-03-02T03:31:36.835Z,5.50
2019-03-02T03:34:06.255Z,5.50
2019-03-02T03:36:35.670Z,5.50
2019-03-02T03:39:07.192Z,5.30
2019-03-02T03:41:42.866Z,5.30
2019-03-02T03:44:08.011Z,5.30
2019-03-02T03:46:37.377Z,5.30
2019-03-02T03:49:06.716Z,5.40
2019-03-02T03:51:36.144Z,5.40
2019-03-02T03:54:07.010Z,5.50
2019-03-02T03:56:37.914Z,5.40
2019-03-02T03:59:07.525Z,5.40
2019-03-02T04:01:36.920Z,5.50
2019-03-02T04:04:06.659Z,5.40
2019-03-02T04:06:36.321Z,5.40
2019-03-02T04:09:08.361Z,5.30
2019-03-02T04:11:41.616Z,5.30
2019-03-02T04:14:08.718Z,5.30
2019-03-02T04:16:38.039Z,5.40
2019-03-02T04:19:08.448Z,5.30
2019-03-02T04:21:46.258Z,5.30
2019-03-02T04:24:15.641Z,5.40
2019-03-02T04:26:45.011Z,5.30
2019-03-02T04:29:14.341Z,5.30
2019-03-02T04:31:48.151Z,5.40
2019-03-02T04:34:20.201Z,5.30
2019-03-02T04:36:47.480Z,5.40
2019-03-02T04:39:16.713Z,5.40
2019-03-02T04:41:46.082Z,5.40
2019-03-02T04:44:15.399Z,5.40
2019-03-02T04:46:47.661Z,5.40
2019-03-02T04:49:15.728Z,5.40
2019-03-02T04:51:45.067Z,5.30
2019-03-02T04:54:14.416Z,5.30
2019-03-02T04:56:43.946Z,5.30
2019-03-02T04:59:13.646Z,5.40
2019-03-02T05:01:46.034Z,5.40
2019-03-02T05:04:13.978Z,5.40
2019-03-02T05:06:43.356Z,5.30
2019-03-02T05:09:13.668Z,5.40
2019-03-02T05:11:43.651Z,5.40
2019-03-02T05:14:13.018Z,5.30
2019-03-02T05:16:42.373Z,5.40
2019-03-02T05:19:11.710Z,5.40
2019-03-02T05:21:43.458Z,5.40
2019-03-02T05:24:12.020Z,5.30
2019-03-02T05:26:41.460Z,5.30
2019-03-02T05:29:10.899Z,5.40
2019-03-02T05:31:40.870Z,5.40
2019-03-02T05:34:11.283Z,5.40
2019-03-02T05:36:40.623Z,5.30
2019-03-02T05:39:09.981Z,5.40
2019-03-02T05:41:40.007Z,5.40
2019-03-02T05:44:09.415Z,5.40
2019-03-02T05:46:38.746Z,5.40
2019-03-02T05:49:08.200Z,5.40
2019-03-02T05:51:38.914Z,5.40
2019-03-02T05:54:08.505Z,5.40
2019-03-02T05:56:37.847Z,5.50
2019-03-02T05:59:07.229Z,5.50
2019-03-02T06:01:36.752Z,5.50
2019-03-02T06:04:07.578Z,5.50
2019-03-02T06:06:36.987Z,5.50
2019-03-02T06:09:13.989Z,5.50
2019-03-02T06:11:41.194Z,5.50
2019-03-02T06:14:10.698Z,5.40
2019-03-02T06:16:40.058Z,5.40
2019-03-02T06:19:09.402Z,5.50
2019-03-02T06:21:38.772Z,5.50
2019-03-02T06:24:08.181Z,5.50
2019-03-02T06:26:37.551Z,5.50
2019-03-02T06:29:06.956Z,5.50
2019-03-02T06:31:36.300Z,5.50
2019-03-02T06:34:05.678Z,5.50
2019-03-02T06:36:35.088Z,5.50
2019-03-02T06:39:07.830Z,5.60
2019-03-02T06:41:36.084Z,5.50
2019-03-02T06:44:05.519Z,5.50
2019-03-02T06:46:34.863Z,5.60
2019-03-02T06:49:04.302Z,5.60
2019-03-02T06:51:33.635Z,5.60
2019-03-02T06:54:03.038Z,5.60
2019-03-02T06:56:32.645Z,5.60
2019-03-02T06:59:04.205Z,5.60
2019-03-02T07:01:34.279Z,5.60
2019-03-02T07:04:03.681Z,5.70
2019-03-02T07:06:33.015Z,5.60
2019-03-02T07:09:02.371Z,5.60
2019-03-02T07:11:33.570Z,5.60
2019-03-02T07:14:02.681Z,5.70
2019-03-02T07:16:32.095Z,5.70
2019-03-02T07:19:20.394Z,5.70
2019-03-02T07:21:49.880Z,5.80
2019-03-02T07:24:19.343Z,5.80
2019-03-02T07:26:51.610Z,5.80
2019-03-02T07:29:19.547Z,5.80
2019-03-02T07:31:48.889Z,5.80
2019-03-02T07:34:18.254Z,5.80
2019-03-02T07:36:47.598Z,5.90
2019-03-02T07:39:16.904Z,5.90
2019-03-02T07:41:46.311Z,5.90
2019-03-02T07:44:18.831Z,5.90
2019-03-02T07:46:49.446Z,5.90
2019-03-02T07:49:27.221Z,5.90
2019-03-02T07:51:56.694Z,6.00
2019-03-02T07:54:26.124Z,6.10
2019-03-02T07:56:58.118Z,6.00
2019-03-02T07:59:29.665Z,6.10
2019-03-02T08:01:59.912Z,6.10
2019-03-02T08:04:35.043Z,6.10
2019-03-02T08:07:05.774Z,6.20
2019-03-02T08:09:35.485Z,6.30
2019-03-02T08:12:04.942Z,6.30
2019-03-02T08:14:37.557Z,6.30
2019-03-02T08:17:09.812Z,6.40
2019-03-02T08:19:37.934Z,6.40
2019-03-02T08:22:07.778Z,6.50
2019-03-02T08:24:40.263Z,6.50
2019-03-02T08:27:10.423Z,6.40
2019-03-02T08:29:39.889Z,6.50
2019-03-02T08:32:10.351Z,6.50
2019-03-02T08:34:42.925Z,6.60
2019-03-02T08:37:10.934Z,6.70
2019-03-02T08:39:42.864Z,6.70
2019-03-02T08:42:20.852Z,6.70
2019-03-02T08:44:50.698Z,6.70
2019-03-02T08:47:21.409Z,6.80
2019-03-02T08:49:50.877Z,6.90
2019-03-02T08:52:20.340Z,7.00
2019-03-02T08:54:49.809Z,7.00
2019-03-02T08:57:22.959Z,7.10
2019-03-02T08:59:50.763Z,7.20
2019-03-02T09:02:20.123Z,7.20
2019-03-02T09:04:50.763Z,7.20
2019-03-02T09:07:20.309Z,7.20
2019-03-02T09:09:50.279Z,7.20
2019-03-02T09:12:21.905Z,7.20
2019-03-02T09:14:51.111Z,7.30
2019-03-02T09:17:20.708Z,7.40
2019-03-02T09:19:50.120Z,7.30
2019-03-02T09:22:20.875Z,7.40
2019-03-02T09:24:51.089Z,7.40
2019-03-02T09:27:20.620Z,7.50
2019-03-02T09:29:51.473Z,7.50
2019-03-02T09:32:20.986Z,7.50
2019-03-02T09:34:50.445Z,7.50
2019-03-02T09:37:20.037Z,7.50
2019-03-02T09:39:49.439Z,7.50
2019-03-02T09:42:19.060Z,7.60
2019-03-02T09:44:50.058Z,7.60
2019-03-02T09:47:19.871Z,7.60
2019-03-02T09:49:49.832Z,7.60
2019-03-02T09:52:19.251Z,7.60
2019-03-02T09:54:48.950Z,7.60
2019-03-02T09:57:18.519Z,7.70
2019-03-02T09:59:48.230Z,7.80
2019-03-02T10:02:17.761Z,8.00
2019-03-02T10:04:47.553Z,7.90
2019-03-02T10:07:17.207Z,8.20
2019-03-02T10:09:46.851Z,8.40
2019-03-02T10:12:16.448Z,8.50
2019-03-02T10:14:46.131Z,8.70
2019-03-02T10:17:15.756Z,9.00
2019-03-02T10:19:45.234Z,9.00
2019-03-02T10:22:14.877Z,8.90
2019-03-02T10:24:44.686Z,9.20
2019-03-02T10:27:17.291Z,9.30
2019-03-02T10:29:48.154Z,9.30
2019-03-02T10:32:17.189Z,9.30
2019-03-02T10:34:46.965Z,9.50
2019-03-02T10:37:16.568Z,9.30
2019-03-02T10:39:46.304Z,9.50
2019-03-02T10:42:15.874Z,9.50
2019-03-02T10:44:45.145Z,9.20
2019-03-02T10:47:15.033Z,9.40
2019-03-02T10:49:47.883Z,9.50
2019-03-02T10:52:15.594Z,9.70
2019-03-02T10:54:44.893Z,9.40
2019-03-02T10:57:14.273Z,9.40
2019-03-02T10:59:43.669Z,9.20
2019-03-02T11:02:13.083Z,9.20
2019-03-02T11:04:46.850Z,9.40
2019-03-02T11:07:48.937Z,9.50
2019-03-02T11:10:35.559Z,9.30
2019-03-02T11:13:32.906Z,9.30
2019-03-02T11:16:19.579Z,9.10
2019-03-02T11:19:07.855Z,9.20
2019-03-02T11:22:02.393Z,9.40
2019-03-02T11:24:56.804Z,9.60
2019-03-02T11:27:49.679Z,9.70
2019-03-02T11:30:34.504Z,9.80
2019-03-02T11:33:21.349Z,9.70
2019-03-02T11:36:10.615Z,10.00
2019-03-02T11:38:58.256Z,9.90
2019-03-02T11:41:41.132Z,9.90
2019-03-02T11:44:28.231Z,9.90
2019-03-02T11:47:05.592Z,10.20
2019-03-02T11:50:00.235Z,10.10
2019-03-02T11:52:47.495Z,10.00
2019-03-02T11:55:35.932Z,9.90
2019-03-02T11:58:15.392Z,10.10
2019-03-02T12:00:54.249Z,10.20
2019-03-02T12:03:45.135Z,10.10
2019-03-02T12:06:42.802Z,10.20
2019-03-02T12:09:38.488Z,10.00
2019-03-02T12:12:24.939Z,9.80
2019-03-02T12:15:12.682Z,9.90
2019-03-02T12:18:03.774Z,9.90
2019-03-02T12:21:09.890Z,9.80
2019-03-02T12:23:51.629Z,9.80
2019-03-02T12:26:37.942Z,9.80
2019-03-02T12:29:34.254Z,9.90
2019-03-02T12:32:28.528Z,9.70
2019-03-02T12:35:19.163Z,9.70
2019-03-02T12:37:55.572Z,9.70
2019-03-02T12:40:52.749Z,9.80
2019-03-02T12:43:31.174Z,9.80
2019-03-02T12:46:19.421Z,9.30
2019-03-02T12:49:10.962Z,9.30
2019-03-02T12:51:59.186Z,9.50
2019-03-02T12:54:44.680Z,9.50
2019-03-02T12:57:33.345Z,9.70
2019-03-02T13:00:27.660Z,9.70
2019-03-02T13:03:30.698Z,9.70
2019-03-02T13:06:16.033Z,9.50
2019-03-02T13:09:03.250Z,9.40
2019-03-02T13:11:50.992Z,9.60
2019-03-02T13:14:38.826Z,9.60
2019-03-02T13:17:25.752Z,9.60
2019-03-02T13:20:15.944Z,9.60
2019-03-02T13:23:06.569Z,9.60
2019-03-02T13:25:57.129Z,9.60
2019-03-02T13:28:32.707Z,9.50
2019-03-02T13:31:20.872Z,9.50
2019-03-02T13:34:08.066Z,9.50
2019-03-02T13:36:57.671Z,9.60
2019-03-02T13:39:51.140Z,9.30
2019-03-02T13:42:41.681Z,9.50
2019-03-02T13:45:35.914Z,9.30
2019-03-02T13:48:25.732Z,9.40
2019-03-02T13:51:18.666Z,9.40
2019-03-02T13:54:11.630Z,9.50
2019-03-02T13:57:01.024Z,9.60
2019-03-02T13:59:53.950Z,9.70
2019-03-02T14:02:47.740Z,9.60
2019-03-02T14:05:27.874Z,9.70
2019-03-02T14:08:11.553Z,9.50
2019-03-02T14:11:01.399Z,9.50
2019-03-02T14:13:39.666Z,9.50
2019-03-02T14:16:27.906Z,9.50
2019-03-02T14:19:18.945Z,9.50
2019-03-02T14:22:07.184Z,9.40
2019-03-02T14:24:46.944Z,9.60
2019-03-02T14:27:26.172Z,9.40
2019-03-02T14:30:01.730Z,9.50
2019-03-02T14:32:53.436Z,9.40
2019-03-02T14:35:47.900Z,9.30
2019-03-02T14:38:33.953Z,9.40
2019-03-02T14:41:14.148Z,9.40
2019-03-02T14:44:01.515Z,9.30
2019-03-02T14:46:56.239Z,9.40
2019-03-02T14:49:50.800Z,9.40
2019-03-02T14:52:45.440Z,9.50
2019-03-02T14:55:29.221Z,9.10
2019-03-02T14:58:26.398Z,9.00
2019-03-02T15:01:25.538Z,9.20
2019-03-02T15:04:12.273Z,9.20
2019-03-02T15:06:59.376Z,9.30
2019-03-02T15:09:45.487Z,9.10
2019-03-02T15:12:32.744Z,9.30
2019-03-02T15:15:27.080Z,9.30
2019-03-02T15:18:22.564Z,9.30
2019-03-02T15:21:20.540Z,9.40
2019-03-02T15:24:15.077Z,9.40
2019-03-02T15:27:05.737Z,9.40
2019-03-02T15:29:54.138Z,9.30
2019-03-02T15:32:37.198Z,9.30
2019-03-02T15:35:25.377Z,9.30
2019-03-02T15:38:12.496Z,8.90
2019-03-02T15:40:59.965Z,8.90
2019-03-02T15:43:59.635Z,9.00
2019-03-02T15:46:45.463Z,9.10
2019-03-02T15:49:32.244Z,9.10
2019-03-02T15:52:11.854Z,8.90
2019-03-02T15:55:09.548Z,8.80
2019-03-02T15:57:48.433Z,8.80
2019-03-02T16:00:24.315Z,8.80
2019-03-02T16:03:15.101Z,8.70
2019-03-02T16:05:57.357Z,8.70
2019-03-02T16:08:48.886Z,8.80
2019-03-02T16:11:52.598Z,8.80
2019-03-02T16:14:36.279Z,8.80
2019-03-02T16:17:41.408Z,8.70
2019-03-02T16:20:21.508Z,8.60
2019-03-02T16:23:18.856Z,8.40
2019-03-02T16:26:01.258Z,8.50
2019-03-02T16:28:58.641Z,8.40
2019-03-02T16:31:37.179Z,8.40
2019-03-02T16:34:23.892Z,8.40
2019-03-02T16:37:13.058Z,8.50
2019-03-02T16:40:22.133Z,8.40
2019-03-02T16:43:01.043Z,8.30
2019-03-02T16:45:52.324Z,8.20
2019-03-02T16:48:28.984Z,8.20
2019-03-02T16:51:21.877Z,8.30
2019-03-02T16:54:25.454Z,8.20
2019-03-02T16:57:12.435Z,8.20
2019-03-02T17:00:05.155Z,8.20
2019-03-02T17:02:58.341Z,8.10
2019-03-02T17:08:47.298Z,8.10
2019-03-02T17:11:41.412Z,8.10
2019-03-02T17:14:22.966Z,8.10
2019-03-02T17:17:12.026Z,8.10
2019-03-02T17:19:50.647Z,8.10
2019-03-02T17:22:35.238Z,8.00
2019-03-02T17:25:20.610Z,7.90
2019-03-02T17:28:15.110Z,7.80
2019-03-02T17:30:53.409Z,7.80
2019-03-02T17:33:38.000Z,7.80
2019-03-02T17:36:29.259Z,7.80
2019-03-02T17:39:09.400Z,7.70
2019-03-02T17:41:57.628Z,7.70
2019-03-02T17:44:55.341Z,7.70
2019-03-02T17:47:41.016Z,7.60
2019-03-02T17:50:41.438Z,7.70
2019-03-02T17:53:18.835Z,7.60
2019-03-02T17:56:01.021Z,7.60
2019-03-02T17:58:48.873Z,7.50
2019-03-02T18:01:38.266Z,7.40
2019-03-02T18:04:31.813Z,7.40
2019-03-02T18:07:16.258Z,7.40
2019-03-02T18:09:57.117Z,7.40
2019-03-02T18:12:38.850Z,7.40
2019-03-02T18:15:27.367Z,7.40
2019-03-02T18:18:01.315Z,7.30
2019-03-02T18:20:32.115Z,7.30
2019-03-02T18:23:01.432Z,7.20
2019-03-02T18:25:30.751Z,7.20
2019-03-02T18:28:03.100Z,7.10
2019-03-02T18:30:32.405Z,7.10
2019-03-02T18:33:14.590Z,7.10
2019-03-02T18:35:43.933Z,7.10
2019-03-02T18:38:13.531Z,7.30
2019-03-02T18:40:43.144Z,7.30
2019-03-02T18:43:12.435Z,7.20
2019-03-02T18:45:41.860Z,7.20
2019-03-02T18:48:19.345Z,7.20
2019-03-02T18:50:56.872Z,7.10
2019-03-02T18:53:28.892Z,7.00
2019-03-02T18:55:57.871Z,6.90
2019-03-02T18:58:28.922Z,6.90
2019-03-02T19:00:58.870Z,6.70
2019-03-02T19:03:28.223Z,6.60
2019-03-02T19:05:57.513Z,6.50
2019-03-02T19:08:26.844Z,6.60
2019-03-02T19:10:57.254Z,6.70
2019-03-02T19:13:26.584Z,6.60
2019-03-02T19:15:58.005Z,6.60
2019-03-02T19:18:27.273Z,6.60
2019-03-02T19:20:58.236Z,6.60
2019-03-02T19:23:27.627Z,6.60
2019-03-02T19:25:56.932Z,6.60
2019-03-02T19:28:26.288Z,6.60
2019-03-02T19:30:55.548Z,6.60
2019-03-02T19:33:24.884Z,6.60
2019-03-02T19:35:54.172Z,6.50
2019-03-02T19:38:23.452Z,6.50
2019-03-02T19:40:52.932Z,6.50
2019-03-02T19:43:22.226Z,6.40
2019-03-02T19:45:51.661Z,6.40
2019-03-02T19:48:20.966Z,6.30
2019-03-02T19:50:50.362Z,6.20
2019-03-02T19:53:19.611Z,6.30
2019-03-02T19:55:48.984Z,6.20
2019-03-02T19:58:18.346Z,6.20
2019-03-02T20:00:47.838Z,6.20
2019-03-02T20:03:17.130Z,6.10
2019-03-02T20:05:46.486Z,6.00
2019-03-02T20:08:15.763Z,6.00
2019-03-02T20:10:45.186Z,6.00
2019-03-02T20:13:14.839Z,6.00
2019-03-02T20:15:44.256Z,5.90
2019-03-02T20:18:13.860Z,5.90
2019-03-02T20:20:43.342Z,5.80
2019-03-02T20:23:12.687Z,5.80
2019-03-02T20:25:43.493Z,5.70
2019-03-02T20:28:12.885Z,5.60
2019-03-02T20:30:42.365Z,5.60
2019-03-02T20:33:11.667Z,5.40
2019-03-02T20:35:41.261Z,5.40
2019-03-02T20:38:10.665Z,5.30
2019-03-02T20:40:40.123Z,5.30
2019-03-02T20:43:09.389Z,5.30
2019-03-02T20:45:39.119Z,5.10
2019-03-02T20:48:08.506Z,5.00
2019-03-02T20:50:38.013Z,5.00
2019-03-02T20:53:07.570Z,5.00
2019-03-02T20:55:36.902Z,4.90
2019-03-02T20:58:06.351Z,4.90
2019-03-02T21:00:35.738Z,4.80
2019-03-02T21:03:05.216Z,4.80
2019-03-02T21:05:34.915Z,4.70
2019-03-02T21:08:04.312Z,4.70
2019-03-02T21:10:33.924Z,4.60
2019-03-02T21:13:03.485Z,4.60
2019-03-02T21:15:34.685Z,4.50
2019-03-02T21:18:04.414Z,4.40
2019-03-02T21:20:36.387Z,4.40
2019-03-02T21:23:05.874Z,4.30
2019-03-02T21:25:35.453Z,4.30
2019-03-02T21:28:08.087Z,4.20
2019-03-02T21:30:37.487Z,4.20
2019-03-02T21:33:06.767Z,4.20
2019-03-02T21:35:36.144Z,4.10
2019-03-02T21:38:05.620Z,4.10
2019-03-02T21:40:35.055Z,4.00
2019-03-02T21:43:04.398Z,4.10
2019-03-02T21:45:33.789Z,4.20
2019-03-02T21:48:03.113Z,4.20
2019-03-02T21:50:32.560Z,4.30
2019-03-02T21:53:02.228Z,4.30
2019-03-02T21:55:31.612Z,4.30
2019-03-02T21:58:00.895Z,4.40
2019-03-02T22:00:30.343Z,4.40
2019-03-02T22:02:59.876Z,4.50
2019-03-02T22:05:29.251Z,4.50
2019-03-02T22:07:59.712Z,4.60
2019-03-02T22:10:32.137Z,4.60
2019-03-02T22:13:01.893Z,4.60
2019-03-02T22:15:31.198Z,4.70
2019-03-02T22:18:00.665Z,4.70
2019-03-02T22:20:30.209Z,4.70
2019-03-02T22:22:59.910Z,4.80
2019-03-02T22:25:29.208Z,4.80
2019-03-02T22:27:58.766Z,4.80
2019-03-02T22:30:28.175Z,4.80
2019-03-02T22:32:57.787Z,4.80
2019-03-02T22:35:27.413Z,4.80
2019-03-02T22:37:56.795Z,4.80
2019-03-02T22:40:26.242Z,4.80
2019-03-02T22:42:55.614Z,4.70
2019-03-02T22:45:27.990Z,4.70
2019-03-02T22:47:57.465Z,4.80
2019-03-02T22:50:26.788Z,4.80
2019-03-02T22:52:56.064Z,4.70
2019-03-02T22:55:25.320Z,4.80
2019-03-02T22:57:54.663Z,4.80
2019-03-02T23:01:05.972Z,4.80
2019-03-02T23:03:33.770Z,4.90
2019-03-02T23:06:03.025Z,4.90
2019-03-02T23:08:32.306Z,5.00
2019-03-02T23:11:01.629Z,5.00
2019-03-02T23:13:30.939Z,5.00
2019-03-02T23:16:00.289Z,5.00
2019-03-02T23:18:29.645Z,5.00
2019-03-02T23:20:58.942Z,5.10
2019-03-02T23:23:28.242Z,5.10
2019-03-02T23:25:57.592Z,5.10
2019-03-02T23:28:27.042Z,5.10
2019-03-02T23:30:56.370Z,5.10
2019-03-02T23:33:25.684Z,5.10
2019-03-02T23:35:55.000Z,5.10
2019-03-02T23:38:24.323Z,5.20
2019-03-02T23:40:53.687Z,5.20
2019-03-02T23:43:23.000Z,5.20
2019-03-02T23:45:52.286Z,5.20
2019-03-02T23:48:21.612Z,5.20
2019-03-02T23:50:50.921Z,5.10
2019-03-02T23:53:20.256Z,5.10
2019-03-02T23:55:49.612Z,5.10
2019-03-02T23:58:18.979Z,5.00
